sensor_id;sensor_type;location;lat;lon;timestamp;temperature;humidity
18611;DHT22;9435;52.122;5.502;2023-05-10T00:02:16;13.20;99.90
18611;DHT22;9435;52.122;5.502;2023-05-10T00:04:43;13.20;99.90
18611;DHT22;9435;52.122;5.502;2023-05-10T00:07:10;13.20;99.90
18611;DHT22;9435;52.122;5.502;2023-05-10T00:09:37;13.20;99.90
18611;DHT22;9435;52.122;5.502;2023-05-10T00:12:05;13.20;99.90
18611;DHT22;9435;52.122;5.502;2023-05-10T00:14:33;13.20;99.90
18611;DHT22;9435;52.122;5.502;2023-05-10T00:17:01;13.10;99.90
18611;DHT22;9435;52.122;5.502;2023-05-10T00:19:28;13.10;99.90
18611;DHT22;9435;52.122;5.502;2023-05-10T00:21:55;13.10;99.90
18611;DHT22;9435;52.122;5.502;2023-05-10T00:24:22;13.10;99.90
18611;DHT22;9435;52.122;5.502;2023-05-10T00:26:49;13.10;99.90
18611;DHT22;9435;52.122;5.502;2023-05-10T00:29:16;13.20;99.90
18611;DHT22;9435;52.122;5.502;2023-05-10T00:31:44;13.20;99.90
18611;DHT22;9435;52.122;5.502;2023-05-10T00:34:11;13.20;99.90
18611;DHT22;9435;52.122;5.502;2023-05-10T00:36:38;13.10;99.90
18611;DHT22;9435;52.122;5.502;2023-05-10T00:39:05;13.10;99.90
18611;DHT22;9435;52.122;5.502;2023-05-10T00:41:32;13.10;99.90
18611;DHT22;9435;52.122;5.502;2023-05-10T00:44:00;13.20;99.90
18611;DHT22;9435;52.122;5.502;2023-05-10T00:46:27;13.10;99.90
18611;DHT22;9435;52.122;5.502;2023-05-10T00:48:56;13.10;99.90
18611;DHT22;9435;52.122;5.502;2023-05-10T00:51:24;13.10;99.90
18611;DHT22;9435;52.122;5.502;2023-05-10T00:53:51;13.00;99.90
18611;DHT22;9435;52.122;5.502;2023-05-10T00:56:18;13.00;99.90
18611;DHT22;9435;52.122;5.502;2023-05-10T00:58:48;13.00;99.90
18611;DHT22;9435;52.122;5.502;2023-05-10T01:01:15;13.00;99.90
18611;DHT22;9435;52.122;5.502;2023-05-10T01:03:43;13.00;99.90
18611;DHT22;9435;52.122;5.502;2023-05-10T01:06:11;13.00;99.90
18611;DHT22;9435;52.122;5.502;2023-05-10T01:08:39;13.00;99.90
18611;DHT22;9435;52.122;5.502;2023-05-10T01:11:06;13.00;99.90
18611;DHT22;9435;52.122;5.502;2023-05-10T01:13:36;13.00;99.90
18611;DHT22;9435;52.122;5.502;2023-05-10T01:16:05;13.00;99.90
18611;DHT22;9435;52.122;5.502;2023-05-10T01:18:36;13.00;99.90
18611;DHT22;9435;52.122;5.502;2023-05-10T01:21:17;13.00;99.90
18611;DHT22;9435;52.122;5.502;2023-05-10T01:24:09;13.00;99.90
18611;DHT22;9435;52.122;5.502;2023-05-10T01:27:17;13.00;99.90
18611;DHT22;9435;52.122;5.502;2023-05-10T01:33:01;13.10;99.90
18611;DHT22;9435;52.122;5.502;2023-05-10T01:35:37;13.00;99.90
18611;DHT22;9435;52.122;5.502;2023-05-10T01:38:09;13.00;99.90
18611;DHT22;9435;52.122;5.502;2023-05-10T01:40:48;13.00;99.90
18611;DHT22;9435;52.122;5.502;2023-05-10T01:43:21;13.10;99.90
18611;DHT22;9435;52.122;5.502;2023-05-10T01:45:57;13.10;99.90
18611;DHT22;9435;52.122;5.502;2023-05-10T01:48:28;13.10;99.90
18611;DHT22;9435;52.122;5.502;2023-05-10T01:50:56;13.10;99.90
18611;DHT22;9435;52.122;5.502;2023-05-10T01:53:24;13.10;99.90
18611;DHT22;9435;52.122;5.502;2023-05-10T01:55:53;13.10;99.90
18611;DHT22;9435;52.122;5.502;2023-05-10T01:58:25;13.00;99.90
18611;DHT22;9435;52.122;5.502;2023-05-10T02:00:54;13.00;99.90
18611;DHT22;9435;52.122;5.502;2023-05-10T02:03:23;13.00;99.90
18611;DHT22;9435;52.122;5.502;2023-05-10T02:05:54;13.00;99.90
18611;DHT22;9435;52.122;5.502;2023-05-10T02:08:23;13.00;99.90
18611;DHT22;9435;52.122;5.502;2023-05-10T02:10:52;13.00;99.90
18611;DHT22;9435;52.122;5.502;2023-05-10T02:13:21;13.00;99.90
18611;DHT22;9435;52.122;5.502;2023-05-10T02:15:51;13.00;99.90
18611;DHT22;9435;52.122;5.502;2023-05-10T02:18:19;13.00;99.90
18611;DHT22;9435;52.122;5.502;2023-05-10T02:20:47;13.00;99.90
18611;DHT22;9435;52.122;5.502;2023-05-10T02:23:17;13.00;99.90
18611;DHT22;9435;52.122;5.502;2023-05-10T02:25:46;13.00;99.90
18611;DHT22;9435;52.122;5.502;2023-05-10T02:28:15;13.00;99.90
18611;DHT22;9435;52.122;5.502;2023-05-10T02:30:44;13.00;99.90
18611;DHT22;9435;52.122;5.502;2023-05-10T02:33:11;13.00;99.90
18611;DHT22;9435;52.122;5.502;2023-05-10T02:35:39;12.90;99.90
18611;DHT22;9435;52.122;5.502;2023-05-10T02:38:07;13.00;99.90
18611;DHT22;9435;52.122;5.502;2023-05-10T02:40:37;13.00;99.90
18611;DHT22;9435;52.122;5.502;2023-05-10T02:43:06;12.90;99.90
18611;DHT22;9435;52.122;5.502;2023-05-10T02:45:36;12.90;99.90
18611;DHT22;9435;52.122;5.502;2023-05-10T02:48:05;12.90;99.90
18611;DHT22;9435;52.122;5.502;2023-05-10T02:50:33;12.90;99.90
18611;DHT22;9435;52.122;5.502;2023-05-10T02:53:03;12.80;99.90
18611;DHT22;9435;52.122;5.502;2023-05-10T02:55:38;12.80;99.90
18611;DHT22;9435;52.122;5.502;2023-05-10T02:58:07;12.90;99.90
18611;DHT22;9435;52.122;5.502;2023-05-10T03:00:34;12.80;99.90
18611;DHT22;9435;52.122;5.502;2023-05-10T03:03:01;12.80;99.90
18611;DHT22;9435;52.122;5.502;2023-05-10T03:05:28;12.80;99.90
18611;DHT22;9435;52.122;5.502;2023-05-10T03:07:56;12.70;99.90
18611;DHT22;9435;52.122;5.502;2023-05-10T03:10:27;12.80;99.90
18611;DHT22;9435;52.122;5.502;2023-05-10T03:13:07;12.70;99.90
18611;DHT22;9435;52.122;5.502;2023-05-10T03:15:44;12.70;99.90
18611;DHT22;9435;52.122;5.502;2023-05-10T03:18:18;12.70;99.90
18611;DHT22;9435;52.122;5.502;2023-05-10T03:20:48;12.60;99.90
18611;DHT22;9435;52.122;5.502;2023-05-10T03:23:22;12.50;99.90
18611;DHT22;9435;52.122;5.502;2023-05-10T03:25:52;12.50;99.90
18611;DHT22;9435;52.122;5.502;2023-05-10T03:28:21;12.50;99.90
18611;DHT22;9435;52.122;5.502;2023-05-10T03:30:52;12.50;99.90
18611;DHT22;9435;52.122;5.502;2023-05-10T03:33:20;12.50;99.90
18611;DHT22;9435;52.122;5.502;2023-05-10T03:35:47;12.50;99.90
18611;DHT22;9435;52.122;5.502;2023-05-10T03:38:14;12.50;99.90
18611;DHT22;9435;52.122;5.502;2023-05-10T03:40:41;12.50;99.90
18611;DHT22;9435;52.122;5.502;2023-05-10T03:43:08;12.50;99.90
18611;DHT22;9435;52.122;5.502;2023-05-10T03:45:36;12.40;99.90
18611;DHT22;9435;52.122;5.502;2023-05-10T03:48:04;12.40;99.90
18611;DHT22;9435;52.122;5.502;2023-05-10T03:50:31;12.40;99.90
18611;DHT22;9435;52.122;5.502;2023-05-10T03:52:58;12.40;99.90
18611;DHT22;9435;52.122;5.502;2023-05-10T03:55:25;12.40;99.90
18611;DHT22;9435;52.122;5.502;2023-05-10T03:57:52;12.40;99.90
18611;DHT22;9435;52.122;5.502;2023-05-10T04:00:20;12.40;99.90
18611;DHT22;9435;52.122;5.502;2023-05-10T04:02:48;12.40;99.90
18611;DHT22;9435;52.122;5.502;2023-05-10T04:05:15;12.40;99.90
18611;DHT22;9435;52.122;5.502;2023-05-10T04:07:42;12.40;99.90
18611;DHT22;9435;52.122;5.502;2023-05-10T04:10:10;12.40;99.90
18611;DHT22;9435;52.122;5.502;2023-05-10T04:12:38;12.40;99.90
18611;DHT22;9435;52.122;5.502;2023-05-10T04:15:06;12.40;99.90
18611;DHT22;9435;52.122;5.502;2023-05-10T04:17:33;12.40;99.90
18611;DHT22;9435;52.122;5.502;2023-05-10T04:20:01;12.40;99.90
18611;DHT22;9435;52.122;5.502;2023-05-10T04:22:29;12.40;99.90
18611;DHT22;9435;52.122;5.502;2023-05-10T04:24:56;12.40;99.90
18611;DHT22;9435;52.122;5.502;2023-05-10T04:27:23;12.40;99.90
18611;DHT22;9435;52.122;5.502;2023-05-10T04:29:50;12.40;99.90
18611;DHT22;9435;52.122;5.502;2023-05-10T04:32:17;12.40;99.90
18611;DHT22;9435;52.122;5.502;2023-05-10T04:34:44;12.40;99.90
18611;DHT22;9435;52.122;5.502;2023-05-10T04:37:13;12.50;99.90
18611;DHT22;9435;52.122;5.502;2023-05-10T04:39:40;12.50;99.90
18611;DHT22;9435;52.122;5.502;2023-05-10T04:42:07;12.50;99.90
18611;DHT22;9435;52.122;5.502;2023-05-10T04:44:34;12.40;99.90
18611;DHT22;9435;52.122;5.502;2023-05-10T04:47:01;12.50;99.90
18611;DHT22;9435;52.122;5.502;2023-05-10T04:49:29;12.50;99.90
18611;DHT22;9435;52.122;5.502;2023-05-10T04:51:56;12.50;99.90
18611;DHT22;9435;52.122;5.502;2023-05-10T04:54:24;12.50;99.90
18611;DHT22;9435;52.122;5.502;2023-05-10T04:56:52;12.50;99.90
18611;DHT22;9435;52.122;5.502;2023-05-10T04:59:19;12.50;99.90
18611;DHT22;9435;52.122;5.502;2023-05-10T05:01:46;12.50;99.90
18611;DHT22;9435;52.122;5.502;2023-05-10T05:04:13;12.50;99.90
18611;DHT22;9435;52.122;5.502;2023-05-10T05:06:40;12.50;99.90
18611;DHT22;9435;52.122;5.502;2023-05-10T05:09:07;12.60;99.90
18611;DHT22;9435;52.122;5.502;2023-05-10T05:11:37;12.60;99.90
18611;DHT22;9435;52.122;5.502;2023-05-10T05:14:04;12.60;99.90
18611;DHT22;9435;52.122;5.502;2023-05-10T05:16:31;12.60;99.90
18611;DHT22;9435;52.122;5.502;2023-05-10T05:18:59;12.60;99.90
18611;DHT22;9435;52.122;5.502;2023-05-10T05:21:27;12.70;99.90
18611;DHT22;9435;52.122;5.502;2023-05-10T05:23:54;12.70;99.90
18611;DHT22;9435;52.122;5.502;2023-05-10T05:26:21;12.70;99.90
18611;DHT22;9435;52.122;5.502;2023-05-10T05:28:50;12.70;99.90
18611;DHT22;9435;52.122;5.502;2023-05-10T05:31:20;12.70;99.90
18611;DHT22;9435;52.122;5.502;2023-05-10T05:33:48;12.70;99.90
18611;DHT22;9435;52.122;5.502;2023-05-10T05:36:15;12.70;99.90
18611;DHT22;9435;52.122;5.502;2023-05-10T05:38:42;12.70;99.90
18611;DHT22;9435;52.122;5.502;2023-05-10T05:41:09;12.70;99.90
18611;DHT22;9435;52.122;5.502;2023-05-10T05:43:36;12.70;99.90
18611;DHT22;9435;52.122;5.502;2023-05-10T05:46:05;12.70;99.90
18611;DHT22;9435;52.122;5.502;2023-05-10T05:48:32;12.70;99.90
18611;DHT22;9435;52.122;5.502;2023-05-10T05:50:59;12.70;99.90
18611;DHT22;9435;52.122;5.502;2023-05-10T05:53:26;12.80;99.90
18611;DHT22;9435;52.122;5.502;2023-05-10T05:55:54;12.70;99.90
18611;DHT22;9435;52.122;5.502;2023-05-10T05:58:22;12.70;99.90
18611;DHT22;9435;52.122;5.502;2023-05-10T06:00:49;12.70;99.90
18611;DHT22;9435;52.122;5.502;2023-05-10T06:03:18;12.80;99.90
18611;DHT22;9435;52.122;5.502;2023-05-10T06:05:46;12.80;99.90
18611;DHT22;9435;52.122;5.502;2023-05-10T06:08:13;12.80;99.90
18611;DHT22;9435;52.122;5.502;2023-05-10T06:10:40;12.80;99.90
18611;DHT22;9435;52.122;5.502;2023-05-10T06:13:07;12.80;99.90
18611;DHT22;9435;52.122;5.502;2023-05-10T06:15:34;12.90;99.90
18611;DHT22;9435;52.122;5.502;2023-05-10T06:18:01;12.90;99.90
18611;DHT22;9435;52.122;5.502;2023-05-10T06:20:30;12.80;99.90
18611;DHT22;9435;52.122;5.502;2023-05-10T06:22:57;12.80;99.90
18611;DHT22;9435;52.122;5.502;2023-05-10T06:25:25;12.80;99.90
18611;DHT22;9435;52.122;5.502;2023-05-10T06:27:52;12.90;99.90
18611;DHT22;9435;52.122;5.502;2023-05-10T06:30:23;12.90;99.90
18611;DHT22;9435;52.122;5.502;2023-05-10T06:32:52;12.80;99.90
18611;DHT22;9435;52.122;5.502;2023-05-10T06:35:20;12.80;99.90
18611;DHT22;9435;52.122;5.502;2023-05-10T06:37:49;12.80;99.90
18611;DHT22;9435;52.122;5.502;2023-05-10T06:40:17;12.70;99.90
18611;DHT22;9435;52.122;5.502;2023-05-10T06:42:44;12.70;99.90
18611;DHT22;9435;52.122;5.502;2023-05-10T06:45:12;12.70;99.90
18611;DHT22;9435;52.122;5.502;2023-05-10T06:47:39;12.80;99.90
18611;DHT22;9435;52.122;5.502;2023-05-10T06:50:07;12.90;99.90
18611;DHT22;9435;52.122;5.502;2023-05-10T06:52:34;12.90;99.90
18611;DHT22;9435;52.122;5.502;2023-05-10T06:55:04;12.90;99.90
18611;DHT22;9435;52.122;5.502;2023-05-10T06:57:31;12.90;99.90
18611;DHT22;9435;52.122;5.502;2023-05-10T06:59:59;12.90;99.90
18611;DHT22;9435;52.122;5.502;2023-05-10T07:02:26;12.80;99.90
18611;DHT22;9435;52.122;5.502;2023-05-10T07:04:53;12.90;99.90
18611;DHT22;9435;52.122;5.502;2023-05-10T07:07:20;12.90;99.90
18611;DHT22;9435;52.122;5.502;2023-05-10T07:09:47;12.80;99.90
18611;DHT22;9435;52.122;5.502;2023-05-10T07:12:16;12.90;99.90
18611;DHT22;9435;52.122;5.502;2023-05-10T07:14:44;12.80;99.90
18611;DHT22;9435;52.122;5.502;2023-05-10T07:17:11;12.90;99.90
18611;DHT22;9435;52.122;5.502;2023-05-10T07:19:38;12.90;99.90
18611;DHT22;9435;52.122;5.502;2023-05-10T07:22:05;12.90;99.90
18611;DHT22;9435;52.122;5.502;2023-05-10T07:24:34;13.00;99.90
18611;DHT22;9435;52.122;5.502;2023-05-10T07:27:01;13.00;99.90
18611;DHT22;9435;52.122;5.502;2023-05-10T07:29:31;12.90;99.90
18611;DHT22;9435;52.122;5.502;2023-05-10T07:31:58;13.00;99.90
18611;DHT22;9435;52.122;5.502;2023-05-10T07:34:25;13.00;99.90
18611;DHT22;9435;52.122;5.502;2023-05-10T07:36:56;13.00;99.90
18611;DHT22;9435;52.122;5.502;2023-05-10T07:39:26;13.00;99.90
18611;DHT22;9435;52.122;5.502;2023-05-10T07:41:53;13.00;99.90
18611;DHT22;9435;52.122;5.502;2023-05-10T07:44:20;13.00;99.90
18611;DHT22;9435;52.122;5.502;2023-05-10T07:46:48;13.00;99.90
18611;DHT22;9435;52.122;5.502;2023-05-10T07:49:15;12.90;99.90
18611;DHT22;9435;52.122;5.502;2023-05-10T07:51:42;12.90;99.90
18611;DHT22;9435;52.122;5.502;2023-05-10T07:54:09;13.00;99.90
18611;DHT22;9435;52.122;5.502;2023-05-10T07:56:37;13.10;99.90
18611;DHT22;9435;52.122;5.502;2023-05-10T07:59:05;13.20;99.90
18611;DHT22;9435;52.122;5.502;2023-05-10T08:01:34;13.20;99.90
18611;DHT22;9435;52.122;5.502;2023-05-10T08:04:02;13.40;99.90
18611;DHT22;9435;52.122;5.502;2023-05-10T08:06:29;13.30;99.90
18611;DHT22;9435;52.122;5.502;2023-05-10T08:08:56;13.40;99.90
18611;DHT22;9435;52.122;5.502;2023-05-10T08:11:23;13.40;99.90
18611;DHT22;9435;52.122;5.502;2023-05-10T08:13:51;13.40;99.90
18611;DHT22;9435;52.122;5.502;2023-05-10T08:16:18;13.50;99.90
18611;DHT22;9435;52.122;5.502;2023-05-10T08:18:46;13.50;99.90
18611;DHT22;9435;52.122;5.502;2023-05-10T08:21:16;13.60;99.90
18611;DHT22;9435;52.122;5.502;2023-05-10T08:23:43;13.70;99.90
18611;DHT22;9435;52.122;5.502;2023-05-10T08:26:10;13.70;99.90
18611;DHT22;9435;52.122;5.502;2023-05-10T08:28:37;13.60;99.90
18611;DHT22;9435;52.122;5.502;2023-05-10T08:31:04;13.70;99.90
18611;DHT22;9435;52.122;5.502;2023-05-10T08:33:31;13.60;99.90
18611;DHT22;9435;52.122;5.502;2023-05-10T08:35:58;13.70;99.90
18611;DHT22;9435;52.122;5.502;2023-05-10T08:38:27;13.80;99.90
18611;DHT22;9435;52.122;5.502;2023-05-10T08:40:55;13.70;99.90
18611;DHT22;9435;52.122;5.502;2023-05-10T08:43:26;13.80;99.90
18611;DHT22;9435;52.122;5.502;2023-05-10T08:45:55;13.80;99.90
18611;DHT22;9435;52.122;5.502;2023-05-10T08:48:23;13.70;99.90
18611;DHT22;9435;52.122;5.502;2023-05-10T08:50:53;13.70;99.90
18611;DHT22;9435;52.122;5.502;2023-05-10T08:53:24;13.70;99.90
18611;DHT22;9435;52.122;5.502;2023-05-10T08:55:53;13.70;99.90
18611;DHT22;9435;52.122;5.502;2023-05-10T08:58:20;13.60;99.90
18611;DHT22;9435;52.122;5.502;2023-05-10T09:00:49;13.50;99.90
18611;DHT22;9435;52.122;5.502;2023-05-10T09:03:18;13.50;99.90
18611;DHT22;9435;52.122;5.502;2023-05-10T09:05:45;13.50;99.90
18611;DHT22;9435;52.122;5.502;2023-05-10T09:08:12;13.60;99.90
18611;DHT22;9435;52.122;5.502;2023-05-10T09:10:42;13.50;99.90
18611;DHT22;9435;52.122;5.502;2023-05-10T09:13:11;13.60;99.90
18611;DHT22;9435;52.122;5.502;2023-05-10T09:15:38;13.70;99.90
18611;DHT22;9435;52.122;5.502;2023-05-10T09:18:05;13.80;99.90
18611;DHT22;9435;52.122;5.502;2023-05-10T09:20:32;13.80;99.90
18611;DHT22;9435;52.122;5.502;2023-05-10T09:23:00;14.00;99.90
18611;DHT22;9435;52.122;5.502;2023-05-10T09:25:27;14.10;99.90
18611;DHT22;9435;52.122;5.502;2023-05-10T09:27:55;14.10;99.90
18611;DHT22;9435;52.122;5.502;2023-05-10T09:30:27;14.20;99.90
18611;DHT22;9435;52.122;5.502;2023-05-10T09:32:56;14.10;99.90
18611;DHT22;9435;52.122;5.502;2023-05-10T09:35:26;14.10;99.90
18611;DHT22;9435;52.122;5.502;2023-05-10T09:37:56;14.20;99.90
18611;DHT22;9435;52.122;5.502;2023-05-10T09:40:25;14.10;99.90
18611;DHT22;9435;52.122;5.502;2023-05-10T09:42:53;14.20;99.90
18611;DHT22;9435;52.122;5.502;2023-05-10T09:45:22;14.30;99.90
18611;DHT22;9435;52.122;5.502;2023-05-10T09:47:50;14.50;99.90
18611;DHT22;9435;52.122;5.502;2023-05-10T09:50:19;14.80;99.90
18611;DHT22;9435;52.122;5.502;2023-05-10T09:52:48;15.00;99.90
18611;DHT22;9435;52.122;5.502;2023-05-10T09:55:16;15.00;99.90
18611;DHT22;9435;52.122;5.502;2023-05-10T09:57:43;15.20;99.90
18611;DHT22;9435;52.122;5.502;2023-05-10T10:00:11;15.30;99.90
18611;DHT22;9435;52.122;5.502;2023-05-10T10:02:43;15.50;99.90
18611;DHT22;9435;52.122;5.502;2023-05-10T10:05:13;15.80;99.90
18611;DHT22;9435;52.122;5.502;2023-05-10T10:07:40;15.90;99.90
18611;DHT22;9435;52.122;5.502;2023-05-10T10:10:08;15.90;99.90
18611;DHT22;9435;52.122;5.502;2023-05-10T10:12:38;15.90;99.90
18611;DHT22;9435;52.122;5.502;2023-05-10T10:15:07;15.70;99.90
18611;DHT22;9435;52.122;5.502;2023-05-10T10:17:36;15.60;99.90
18611;DHT22;9435;52.122;5.502;2023-05-10T10:20:05;15.50;99.90
18611;DHT22;9435;52.122;5.502;2023-05-10T10:22:33;15.50;99.90
18611;DHT22;9435;52.122;5.502;2023-05-10T10:25:00;15.40;99.90
18611;DHT22;9435;52.122;5.502;2023-05-10T10:27:47;15.30;99.90
18611;DHT22;9435;52.122;5.502;2023-05-10T10:30:31;15.30;99.90
18611;DHT22;9435;52.122;5.502;2023-05-10T10:33:18;15.20;99.90
18611;DHT22;9435;52.122;5.502;2023-05-10T10:35:55;15.20;99.90
18611;DHT22;9435;52.122;5.502;2023-05-10T10:38:23;15.30;99.90
18611;DHT22;9435;52.122;5.502;2023-05-10T10:41:02;15.40;99.90
18611;DHT22;9435;52.122;5.502;2023-05-10T10:43:29;15.60;99.90
18611;DHT22;9435;52.122;5.502;2023-05-10T10:46:10;15.50;99.90
18611;DHT22;9435;52.122;5.502;2023-05-10T10:48:39;15.50;99.90
18611;DHT22;9435;52.122;5.502;2023-05-10T10:51:06;15.60;99.90
18611;DHT22;9435;52.122;5.502;2023-05-10T10:53:34;15.50;99.90
18611;DHT22;9435;52.122;5.502;2023-05-10T10:56:08;15.40;99.90
18611;DHT22;9435;52.122;5.502;2023-05-10T10:58:36;15.30;99.90
18611;DHT22;9435;52.122;5.502;2023-05-10T11:01:11;15.20;99.90
18611;DHT22;9435;52.122;5.502;2023-05-10T11:03:39;15.20;99.90
18611;DHT22;9435;52.122;5.502;2023-05-10T11:06:06;15.30;99.90
18611;DHT22;9435;52.122;5.502;2023-05-10T11:08:41;15.40;99.90
18611;DHT22;9435;52.122;5.502;2023-05-10T11:11:10;15.50;99.90
18611;DHT22;9435;52.122;5.502;2023-05-10T11:13:41;15.60;99.90
18611;DHT22;9435;52.122;5.502;2023-05-10T11:16:16;15.70;99.90
18611;DHT22;9435;52.122;5.502;2023-05-10T11:19:08;15.70;99.90
18611;DHT22;9435;52.122;5.502;2023-05-10T11:21:46;15.90;99.90
18611;DHT22;9435;52.122;5.502;2023-05-10T11:24:16;15.80;99.90
18611;DHT22;9435;52.122;5.502;2023-05-10T11:26:44;15.80;99.90
18611;DHT22;9435;52.122;5.502;2023-05-10T11:29:12;15.90;99.90
18611;DHT22;9435;52.122;5.502;2023-05-10T11:31:43;15.90;99.90
18611;DHT22;9435;52.122;5.502;2023-05-10T11:34:11;16.00;99.90
18611;DHT22;9435;52.122;5.502;2023-05-10T11:36:40;15.90;99.90
18611;DHT22;9435;52.122;5.502;2023-05-10T11:39:07;15.80;99.90
18611;DHT22;9435;52.122;5.502;2023-05-10T11:41:36;15.80;99.90
18611;DHT22;9435;52.122;5.502;2023-05-10T11:44:04;15.70;99.90
18611;DHT22;9435;52.122;5.502;2023-05-10T11:46:31;15.80;99.90
18611;DHT22;9435;52.122;5.502;2023-05-10T11:48:59;15.90;99.90
18611;DHT22;9435;52.122;5.502;2023-05-10T11:51:32;16.00;99.90
18611;DHT22;9435;52.122;5.502;2023-05-10T11:53:59;16.10;99.90
18611;DHT22;9435;52.122;5.502;2023-05-10T11:56:26;16.20;99.90
18611;DHT22;9435;52.122;5.502;2023-05-10T11:58:56;16.40;99.90
18611;DHT22;9435;52.122;5.502;2023-05-10T12:01:23;16.50;99.90
18611;DHT22;9435;52.122;5.502;2023-05-10T12:03:52;16.70;99.90
18611;DHT22;9435;52.122;5.502;2023-05-10T12:06:20;16.70;99.90
18611;DHT22;9435;52.122;5.502;2023-05-10T12:08:48;16.90;99.90
18611;DHT22;9435;52.122;5.502;2023-05-10T12:11:18;17.20;99.90
18611;DHT22;9435;52.122;5.502;2023-05-10T12:13:47;17.30;99.90
18611;DHT22;9435;52.122;5.502;2023-05-10T12:16:21;17.30;99.90
18611;DHT22;9435;52.122;5.502;2023-05-10T12:18:49;17.40;99.90
18611;DHT22;9435;52.122;5.502;2023-05-10T12:21:17;17.40;99.90
18611;DHT22;9435;52.122;5.502;2023-05-10T12:23:45;17.30;99.90
18611;DHT22;9435;52.122;5.502;2023-05-10T12:26:13;17.10;99.90
18611;DHT22;9435;52.122;5.502;2023-05-10T12:28:40;16.90;99.90
18611;DHT22;9435;52.122;5.502;2023-05-10T12:31:08;16.80;99.90
18611;DHT22;9435;52.122;5.502;2023-05-10T12:33:41;16.70;99.90
18611;DHT22;9435;52.122;5.502;2023-05-10T12:36:08;16.80;99.90
18611;DHT22;9435;52.122;5.502;2023-05-10T12:38:37;17.00;99.90
18611;DHT22;9435;52.122;5.502;2023-05-10T12:41:05;17.20;99.90
18611;DHT22;9435;52.122;5.502;2023-05-10T12:43:34;17.40;99.90
18611;DHT22;9435;52.122;5.502;2023-05-10T12:46:05;17.40;99.90
18611;DHT22;9435;52.122;5.502;2023-05-10T12:48:33;17.50;99.90
18611;DHT22;9435;52.122;5.502;2023-05-10T12:51:02;17.80;99.90
18611;DHT22;9435;52.122;5.502;2023-05-10T12:53:29;18.00;99.90
18611;DHT22;9435;52.122;5.502;2023-05-10T12:55:57;17.90;99.90
18611;DHT22;9435;52.122;5.502;2023-05-10T12:58:24;17.80;99.90
18611;DHT22;9435;52.122;5.502;2023-05-10T13:00:51;17.90;99.90
18611;DHT22;9435;52.122;5.502;2023-05-10T13:03:19;18.20;99.90
18611;DHT22;9435;52.122;5.502;2023-05-10T13:05:46;18.00;99.90
18611;DHT22;9435;52.122;5.502;2023-05-10T13:08:14;18.00;99.90
18611;DHT22;9435;52.122;5.502;2023-05-10T13:10:42;18.20;99.90
18611;DHT22;9435;52.122;5.502;2023-05-10T13:13:09;18.20;99.90
18611;DHT22;9435;52.122;5.502;2023-05-10T13:15:36;18.10;99.90
18611;DHT22;9435;52.122;5.502;2023-05-10T13:18:03;18.30;99.90
18611;DHT22;9435;52.122;5.502;2023-05-10T13:20:30;18.30;99.90
18611;DHT22;9435;52.122;5.502;2023-05-10T13:22:57;18.30;99.90
18611;DHT22;9435;52.122;5.502;2023-05-10T13:25:26;18.20;99.90
18611;DHT22;9435;52.122;5.502;2023-05-10T13:27:53;18.10;99.90
18611;DHT22;9435;52.122;5.502;2023-05-10T13:30:20;17.70;99.90
18611;DHT22;9435;52.122;5.502;2023-05-10T13:32:47;17.20;99.90
18611;DHT22;9435;52.122;5.502;2023-05-10T13:35:14;16.70;99.90
18611;DHT22;9435;52.122;5.502;2023-05-10T13:37:41;16.10;99.90
18611;DHT22;9435;52.122;5.502;2023-05-10T13:40:08;16.00;99.90
18611;DHT22;9435;52.122;5.502;2023-05-10T13:42:37;15.80;99.90
18611;DHT22;9435;52.122;5.502;2023-05-10T13:45:05;15.40;99.90
18611;DHT22;9435;52.122;5.502;2023-05-10T13:47:32;15.10;99.90
18611;DHT22;9435;52.122;5.502;2023-05-10T13:49:59;14.90;99.90
18611;DHT22;9435;52.122;5.502;2023-05-10T13:52:26;14.70;99.90
18611;DHT22;9435;52.122;5.502;2023-05-10T13:54:53;14.60;99.90
18611;DHT22;9435;52.122;5.502;2023-05-10T13:57:21;14.50;99.90
18611;DHT22;9435;52.122;5.502;2023-05-10T13:59:51;14.30;99.90
18611;DHT22;9435;52.122;5.502;2023-05-10T14:02:18;14.30;99.90
18611;DHT22;9435;52.122;5.502;2023-05-10T14:04:45;14.20;99.90
18611;DHT22;9435;52.122;5.502;2023-05-10T14:07:12;14.10;99.90
18611;DHT22;9435;52.122;5.502;2023-05-10T14:09:39;14.00;99.90
18611;DHT22;9435;52.122;5.502;2023-05-10T14:12:06;13.90;99.90
18611;DHT22;9435;52.122;5.502;2023-05-10T14:14:33;13.90;99.90
18611;DHT22;9435;52.122;5.502;2023-05-10T14:17:02;13.90;99.90
18611;DHT22;9435;52.122;5.502;2023-05-10T14:19:29;13.90;99.90
18611;DHT22;9435;52.122;5.502;2023-05-10T14:21:58;13.90;99.90
18611;DHT22;9435;52.122;5.502;2023-05-10T14:24:25;13.90;99.90
18611;DHT22;9435;52.122;5.502;2023-05-10T14:26:52;13.90;99.90
18611;DHT22;9435;52.122;5.502;2023-05-10T14:29:19;13.90;99.90
18611;DHT22;9435;52.122;5.502;2023-05-10T14:31:46;14.00;99.90
18611;DHT22;9435;52.122;5.502;2023-05-10T14:34:15;13.90;99.90
18611;DHT22;9435;52.122;5.502;2023-05-10T14:36:42;13.90;99.90
18611;DHT22;9435;52.122;5.502;2023-05-10T14:39:09;13.90;99.90
18611;DHT22;9435;52.122;5.502;2023-05-10T14:41:38;13.90;99.90
18611;DHT22;9435;52.122;5.502;2023-05-10T14:44:06;13.90;99.90
18611;DHT22;9435;52.122;5.502;2023-05-10T14:46:33;14.00;99.90
18611;DHT22;9435;52.122;5.502;2023-05-10T14:49:01;14.00;99.90
18611;DHT22;9435;52.122;5.502;2023-05-10T14:51:29;13.90;99.90
18611;DHT22;9435;52.122;5.502;2023-05-10T14:53:57;14.00;99.90
18611;DHT22;9435;52.122;5.502;2023-05-10T14:56:24;14.00;99.90
18611;DHT22;9435;52.122;5.502;2023-05-10T14:58:51;14.00;99.90
18611;DHT22;9435;52.122;5.502;2023-05-10T15:01:18;14.10;99.90
18611;DHT22;9435;52.122;5.502;2023-05-10T15:03:45;14.20;99.90
18611;DHT22;9435;52.122;5.502;2023-05-10T15:06:14;14.20;99.90
18611;DHT22;9435;52.122;5.502;2023-05-10T15:08:42;14.30;99.90
18611;DHT22;9435;52.122;5.502;2023-05-10T15:11:09;14.40;99.90
18611;DHT22;9435;52.122;5.502;2023-05-10T15:13:36;14.30;99.90
18611;DHT22;9435;52.122;5.502;2023-05-10T15:16:04;14.40;99.90
18611;DHT22;9435;52.122;5.502;2023-05-10T15:18:31;14.40;99.90
18611;DHT22;9435;52.122;5.502;2023-05-10T15:20:58;14.40;99.90
18611;DHT22;9435;52.122;5.502;2023-05-10T15:23:25;14.50;99.90
18611;DHT22;9435;52.122;5.502;2023-05-10T15:25:53;14.60;99.90
18611;DHT22;9435;52.122;5.502;2023-05-10T15:28:21;14.70;99.90
18611;DHT22;9435;52.122;5.502;2023-05-10T15:30:48;14.70;99.90
18611;DHT22;9435;52.122;5.502;2023-05-10T15:33:15;14.80;99.90
18611;DHT22;9435;52.122;5.502;2023-05-10T15:35:42;14.90;99.90
18611;DHT22;9435;52.122;5.502;2023-05-10T15:38:09;14.90;99.90
18611;DHT22;9435;52.122;5.502;2023-05-10T15:40:37;14.90;99.90
18611;DHT22;9435;52.122;5.502;2023-05-10T15:43:05;14.90;99.90
18611;DHT22;9435;52.122;5.502;2023-05-10T15:45:32;14.90;99.90
18611;DHT22;9435;52.122;5.502;2023-05-10T15:48:00;14.90;99.90
18611;DHT22;9435;52.122;5.502;2023-05-10T15:50:27;15.10;99.90
18611;DHT22;9435;52.122;5.502;2023-05-10T15:52:54;15.10;99.90
18611;DHT22;9435;52.122;5.502;2023-05-10T15:55:21;15.10;99.90
18611;DHT22;9435;52.122;5.502;2023-05-10T15:57:48;15.10;99.90